Nearby METAR Reports

 

KLOM - Philly Wings F, Pennsylvania, USA
Distance from station: SW 6mi, 10km
Updated: Tue, 03-Mar-2015 2:55pm EST
Partly cloudy
Partly cloudy
 Wind from S
Wind: S 8 mph , 13 km/h
Temperature: 32°F , 0°C
Wind Chill: 25°F , -4°C
Dew Point: 18°F , -8°C
Humidity: 55%
Barometer: 30.23 inHg , 1023.7 hPa
Clouds: Partly cloudy
Visibility: 10 miles , 16 km
Cloud details: Partly cloudy 1400 ft
Partly cloudy 2500 ft
2015/03/03 19:55 KLOM 031955Z AUTO 18007KT 10SM SCT014 SCT025 00/M08 A3023 RMK AO1
KDYL - Doylestown, Pennsylvania, USA
Distance from station: NNE 10mi, 17km
Updated: Tue, 03-Mar-2015 2:54pm EST
Light snow, Overcast
Light snow, Overcast
 Wind from S
Wind: S 7 mph , 11 km/h
Temperature: 28°F , -2°C
Wind Chill: 21°F , -6°C
Dew Point: 14°F , -10°C
Humidity: 55%
Barometer: 30.23 inHg , 1023.7 hPa
Summary: Light Snow
Clouds: Overcast
Visibility: 10 miles , 16 km
Cloud details: Mostly cloudy 3800 ft
Overcast 4600 ft
2015/03/03 19:54 KDYL 031954Z AUTO 18006KT 10SM -SN BKN038 OVC046 M02/M10 A3023 RMK AO2 SNB51 SLP247 P0000 T10221100
KPNE - Philadelphia/Ne, Pennsylvania, USA
Distance from station: SE 11mi, 18km
Updated: Tue, 03-Mar-2015 2:54pm EST
Overcast
Overcast
 Wind from S
Wind: S 6 mph , 9 km/h
Temperature: 36°F , 2°C
Wind Chill: 31°F , -1°C
Dew Point: 10°F , -12°C
Humidity: 35%
Barometer: 30.27 inHg , 1025.1 hPa
Clouds: Overcast
Visibility: 10 miles , 16 km
Cloud details: Overcast 5500 ft
2015/03/03 19:54 KPNE 031954Z 18005KT 10SM OVC055 02/M12 A3027 RMK AO2 SLP249 T00171122
 
KPTW - Pottstown, Pennsylvania, USA
Distance from station: W 20mi, 32km
Updated: Tue, 03-Mar-2015 2:54pm EST
Overcast
Overcast
 Wind from varies
Wind: varies 6 mph , 9 km/h
Temperature: 28°F , -2°C
Wind Chill: 21°F , -6°C
Dew Point: 16°F , -9°C
Humidity: 59%
Barometer: 30.24 inHg , 1024 hPa
Clouds: Overcast
Visibility: 7 miles , 11 km
Cloud details: Few Clouds 3800 ft
Overcast 4600 ft
2015/03/03 19:54 KPTW 031954Z AUTO VRB05KT 7SM UP FEW038 OVC046 M02/M09 A3024 RMK AO2 UPE03B41SNB29E41 SLP241 P0001 T10221089
KTTN - Trenton, New Jersey, USA
Distance from station: ENE 20mi, 32km
Updated: Tue, 03-Mar-2015 2:53pm EST
Overcast
Overcast
 Wind from S
Wind: S 8 mph , 13 km/h
Temperature: 32°F , 0°C
Wind Chill: 25°F , -4°C
Dew Point: 12°F , -11°C
Humidity: 44%
Barometer: 30.24 inHg , 1024 hPa
Clouds: Overcast
Visibility: 10 miles , 16 km
Cloud details: Mostly cloudy 4700 ft
Overcast 5500 ft
2015/03/03 19:53 KTTN 031953Z 19007KT 10SM BKN047 OVC055 00/M11 A3024 RMK AO2 SLP236 T00001106
KUKT - Quakertown Arp, Pennsylvania, USA
Distance from station: NNW 20mi, 32km
Updated: Tue, 03-Mar-2015 2:55pm EST
Overcast
Overcast
 Wind from SSE
Wind: SSE 6 mph , 9 km/h
Temperature: 27°F , -3°C
Wind Chill: 20°F , -7°C
Dew Point: 18°F , -8°C
Humidity: 69%
Barometer: 30.23 inHg , 1023.7 hPa
Clouds: Overcast
Visibility: 2 miles , 3 km
Cloud details: Partly cloudy 1000 ft
Overcast 1800 ft
2015/03/03 19:55 KUKT 031955Z AUTO 16005KT 2SM SCT010 OVC018 M03/M08 A3023 RMK AO1
 
KPHL - Philadelphia, Pennsylvania, USA
Distance from station: S 22mi, 36km
Updated: Tue, 03-Mar-2015 3:03pm EST

 Wind from SSE
Wind: SSE 10 mph , 17 km/h
Visibility: 3 miles , 5 km
2015/03/03 20:03 KPHL 032003Z 16009KT 3SM -SNPL BKN041 OVC050 01/M09 A3026 RMK AO2 PLB02 P0000 T00061094 $
KVAY - Mount Holly, New Jersey, USA
Distance from station: SE 25mi, 41km
Updated: Tue, 03-Mar-2015 2:54pm EST
Overcast
Overcast
 Wind from S
Wind: S 7 mph , 11 km/h
Temperature: 34°F , 1°C
Wind Chill: 28°F , -2°C
Dew Point: 16°F , -9°C
Humidity: 48%
Barometer: 30.27 inHg , 1025.1 hPa
Clouds: Overcast
Visibility: 10 miles , 16 km
Cloud details: Overcast 5500 ft
2015/03/03 19:54 KVAY 031954Z AUTO 17006KT 10SM OVC055 01/M09 A3027 RMK AO2 SLP251 T00061094
KXLL - Allentown Queen, Pennsylvania, USA
Distance from station: NNW 31mi, 49km
Updated: Tue, 03-Mar-2015 2:55pm EST
Light snow, Mostly cloudy
Light snow, Mostly cloudy
 Wind from SSE
Wind: SSE 7 mph , 11 km/h
Temperature: 28°F , -2°C
Wind Chill: 21°F , -6°C
Dew Point: 21°F , -6°C
Humidity: 74%
Barometer: 30.23 inHg , 1023.7 hPa
Summary: Light Snow
Clouds: Mostly cloudy
Visibility: 3 miles , 5 km
Cloud details: Partly cloudy 2500 ft
Mostly cloudy 3400 ft
Mostly cloudy 4500 ft
2015/03/03 19:55 KXLL 031955Z AUTO 15006KT 3SM -SN SCT025 BKN034 BKN045 M02/M06 A3023 RMK AO2
 
KWRI - Wrightst/Mcguire, New Jersey, USA
Distance from station: ESE 34mi, 54km
Updated: Tue, 03-Mar-2015 3:10pm EST

 Wind from S
Wind: S 10 mph , 17 km/h
Visibility: 10 miles , 16 km
2015/03/03 20:10 KWRI 032010Z 17009KT 10SM -PL BKN050 BKN060 00/M08 A3023
KABE - Allentown, Pennsylvania, USA
Distance from station: NNW 35mi, 56km
Updated: Tue, 03-Mar-2015 3:07pm EST
Light snow, Overcast
Light snow, Overcast
 Wind from ESE
Wind: ESE 8 mph , 13 km/h
Temperature: 27°F , -3°C
Wind Chill: 19°F , -7°C
Dew Point: 19°F , -7°C
Humidity: 74%
Barometer: 30.21 inHg , 1023 hPa
Summary: Light Snow
Clouds: Overcast
Visibility: 2 1/2 miles , 2 km
Cloud details: Overcast 4900 ft
2015/03/03 20:07 KABE 032007Z 12007KT 2 1/2SM -SN OVC049 M03/M07 A3021 RMK AO2 PRESFR P0001
KMQS - Coatesville, Pennsylvania, USA
Distance from station: WSW 39mi, 63km
Updated: Tue, 03-Mar-2015 2:55pm EST
Light snow, Overcast
Light snow, Overcast
 Wind from SE
Wind: SE 6 mph , 9 km/h
Temperature: 28°F , -2°C
Wind Chill: 21°F , -6°C
Dew Point: 23°F , -5°C
Humidity: 80%
Barometer: 30.21 inHg , 1023 hPa
Summary: Light Snow
Clouds: Overcast
Visibility: 3 miles , 5 km
Cloud details: Overcast 3700 ft
2015/03/03 19:55 KMQS 031955Z AUTO 14005KT 3SM -SN OVC037 M02/M05 A3021 RMK AO2
 
KSMQ - Somerville, New Jersey, USA
Distance from station: NE 40mi, 64km
Updated: Tue, 03-Mar-2015 3:08pm EST
Light snow, Overcast
Light snow, Overcast
 Wind from calm
Wind: Calm
Temperature: 28°F , -2°C
Dew Point: 21°F , -6°C
Humidity: 74%
Barometer: 30.24 inHg , 1024 hPa
Summary: Light Snow
Clouds: Overcast
Visibility: 2 1/2 miles , 2 km
Cloud details: Mostly cloudy 3500 ft
Overcast 4500 ft
2015/03/03 20:08 KSMQ 032008Z AUTO 00000KT 2 1/2SM -SN BKN035 OVC045 M02/M06 A3024 RMK AO2 P0000 T10221056 TSNO
KILG - Wilmington, Delaware, USA
Distance from station: SSW 42mi, 68km
Updated: Tue, 03-Mar-2015 3:08pm EST
Light freezing rain, Overcast
Light freezing rain, Overcast
 Wind from S
Wind: S 12 mph , 19 km/h
Temperature: 28°F , -2°C
Wind Chill: 18°F , -8°C
Dew Point: 25°F , -4°C
Humidity: 86%
Barometer: 30.26 inHg , 1024.7 hPa
Summary: Light Freezing Rain
Clouds: Overcast
Visibility: 4 miles , 6 km
Cloud details: Overcast 4200 ft
2015/03/03 20:08 KILG 032008Z 17010KT 4SM -FZRA OVC042 M02/M04 A3026 RMK AO2 UPE02FZRAB02 P0001 I1001 T10171044
KRDG - Reading, Pennsylvania, USA
Distance from station: WNW 43mi, 70km
Updated: Tue, 03-Mar-2015 2:54pm EST
Overcast
Overcast
 Wind from S
Wind: S 10 mph , 17 km/h
Temperature: 28°F , -2°C
Wind Chill: 19°F , -7°C
Dew Point: 18°F , -8°C
Humidity: 64%
Barometer: 30.20 inHg , 1022.7 hPa
Clouds: Overcast
Visibility: 8 miles , 13 km
Cloud details: Overcast 4600 ft
2015/03/03 19:54 KRDG 031954Z 17009KT 8SM UP OVC046 M02/M08 A3020 RMK AO2 SNB04E16 SLP238 P0000 I1000 T10221078
 
KNEL - Lakehurst Nas, New Jersey, USA
Distance from station: ESE 46mi, 74km
Updated: Mon, 06-Oct-2014 4:00pm EDT
NOT Current
Clear
Clear
 Wind from S
Wind: S 15 mph , 24 km/h, Gust: 23 mph , 37 km/h
Temperature: 70°F , 21°C
Dew Point: 46°F , 8°C
Humidity: 43%
Barometer: 30.01 inHg , 1016.3 hPa
Clouds: Clear
Visibility: 10 miles , 16 km
2014/10/06 20:00 KNEL 062000Z AUTO 17013G20KT 10SM CLR 21/08 A3001 RMK AO2 SLP163 T02110083 $
KMJX - Toms River, New Jersey, USA
Distance from station: ESE 50mi, 80km
Updated: Tue, 03-Mar-2015 2:55pm EST
Overcast
Overcast
 Wind from S
Wind: S 9 mph , 15 km/h
Temperature: 34°F , 1°C
Wind Chill: 27°F , -3°C
Dew Point: 18°F , -8°C
Humidity: 51%
Barometer: 30.28 inHg , 1025.4 hPa
Clouds: Overcast
Visibility: 10 miles , 16 km
Cloud details: Overcast 7000 ft
2015/03/03 19:55 KMJX 031955Z AUTO 19008KT 10SM OVC070 01/M08 A3028 RMK AO1